sensor_id;sensor_type;location;lat;lon;timestamp;temperature;humidity
33803;DHT22;20110;53.120;5.786;2022-09-12T00:00:04;11.70;99.90
33803;DHT22;20110;53.120;5.786;2022-09-12T00:02:31;12.00;99.90
33803;DHT22;20110;53.120;5.786;2022-09-12T00:04:56;12.00;99.90
33803;DHT22;20110;53.120;5.786;2022-09-12T00:07:23;12.10;99.90
33803;DHT22;20110;53.120;5.786;2022-09-12T00:09:48;12.10;99.90
33803;DHT22;20110;53.120;5.786;2022-09-12T00:12:14;12.10;99.90
33803;DHT22;20110;53.120;5.786;2022-09-12T00:14:40;12.10;99.90
33803;DHT22;20110;53.120;5.786;2022-09-12T00:17:06;12.00;99.90
33803;DHT22;20110;53.120;5.786;2022-09-12T00:19:32;12.00;99.90
33803;DHT22;20110;53.120;5.786;2022-09-12T00:21:57;12.00;99.90
33803;DHT22;20110;53.120;5.786;2022-09-12T00:24:23;12.00;99.90
33803;DHT22;20110;53.120;5.786;2022-09-12T00:26:49;12.10;99.90
33803;DHT22;20110;53.120;5.786;2022-09-12T00:29:20;12.20;99.90
33803;DHT22;20110;53.120;5.786;2022-09-12T00:31:47;12.20;99.90
33803;DHT22;20110;53.120;5.786;2022-09-12T00:34:13;12.20;99.90
33803;DHT22;20110;53.120;5.786;2022-09-12T00:36:39;12.30;99.90
33803;DHT22;20110;53.120;5.786;2022-09-12T00:39:06;12.20;99.90
33803;DHT22;20110;53.120;5.786;2022-09-12T00:41:37;12.20;99.90
33803;DHT22;20110;53.120;5.786;2022-09-12T00:53:14;12.10;99.90
33803;DHT22;20110;53.120;5.786;2022-09-12T00:55:41;12.10;99.90
33803;DHT22;20110;53.120;5.786;2022-09-12T00:58:15;12.10;99.90
33803;DHT22;20110;53.120;5.786;2022-09-12T01:00:47;12.10;99.90
33803;DHT22;20110;53.120;5.786;2022-09-12T01:03:17;12.10;99.90
33803;DHT22;20110;53.120;5.786;2022-09-12T01:06:10;12.20;99.90
33803;DHT22;20110;53.120;5.786;2022-09-12T01:08:43;12.20;99.90
33803;DHT22;20110;53.120;5.786;2022-09-12T01:11:12;12.20;99.90
33803;DHT22;20110;53.120;5.786;2022-09-12T01:13:38;12.10;99.90
33803;DHT22;20110;53.120;5.786;2022-09-12T01:16:05;12.10;99.90
33803;DHT22;20110;53.120;5.786;2022-09-12T01:44:20;11.80;99.90
33803;DHT22;20110;53.120;5.786;2022-09-12T01:52:55;11.80;99.90
33803;DHT22;20110;53.120;5.786;2022-09-12T01:58:26;11.80;99.90
33803;DHT22;20110;53.120;5.786;2022-09-12T02:01:15;11.80;99.90
33803;DHT22;20110;53.120;5.786;2022-09-12T02:03:54;11.70;99.90
33803;DHT22;20110;53.120;5.786;2022-09-12T02:06:57;11.70;99.90
33803;DHT22;20110;53.120;5.786;2022-09-12T02:09:58;11.70;99.90
33803;DHT22;20110;53.120;5.786;2022-09-12T02:12:28;11.60;99.90
33803;DHT22;20110;53.120;5.786;2022-09-12T02:15:03;11.60;99.90
33803;DHT22;20110;53.120;5.786;2022-09-12T02:17:37;11.50;99.90
33803;DHT22;20110;53.120;5.786;2022-09-12T02:20:15;11.60;99.90
33803;DHT22;20110;53.120;5.786;2022-09-12T02:22:44;11.60;99.90
33803;DHT22;20110;53.120;5.786;2022-09-12T02:25:14;11.70;99.90
33803;DHT22;20110;53.120;5.786;2022-09-12T02:27:52;11.70;99.90
33803;DHT22;20110;53.120;5.786;2022-09-12T02:30:24;11.70;99.90
33803;DHT22;20110;53.120;5.786;2022-09-12T02:33:06;11.80;99.90
33803;DHT22;20110;53.120;5.786;2022-09-12T02:36:03;11.80;99.90
33803;DHT22;20110;53.120;5.786;2022-09-12T02:38:43;11.80;99.90
33803;DHT22;20110;53.120;5.786;2022-09-12T02:41:14;11.80;99.90
33803;DHT22;20110;53.120;5.786;2022-09-12T02:43:43;11.80;99.90
33803;DHT22;20110;53.120;5.786;2022-09-12T02:46:16;11.70;99.90
33803;DHT22;20110;53.120;5.786;2022-09-12T02:49:16;11.70;99.90
33803;DHT22;20110;53.120;5.786;2022-09-12T02:51:42;11.70;99.90
33803;DHT22;20110;53.120;5.786;2022-09-12T02:54:10;11.70;99.90
33803;DHT22;20110;53.120;5.786;2022-09-12T02:56:40;11.70;99.90
33803;DHT22;20110;53.120;5.786;2022-09-12T02:59:09;11.70;99.90
33803;DHT22;20110;53.120;5.786;2022-09-12T03:22:22;11.30;99.90
33803;DHT22;20110;53.120;5.786;2022-09-12T03:25:35;11.30;99.90
33803;DHT22;20110;53.120;5.786;2022-09-12T03:28:15;11.20;99.90
33803;DHT22;20110;53.120;5.786;2022-09-12T03:30:45;11.20;99.90
33803;DHT22;20110;53.120;5.786;2022-09-12T03:33:15;11.30;99.90
33803;DHT22;20110;53.120;5.786;2022-09-12T03:35:46;11.20;99.90
33803;DHT22;20110;53.120;5.786;2022-09-12T03:38:12;11.30;99.90
33803;DHT22;20110;53.120;5.786;2022-09-12T03:40:39;11.30;99.90
33803;DHT22;20110;53.120;5.786;2022-09-12T03:43:09;11.30;99.90
33803;DHT22;20110;53.120;5.786;2022-09-12T03:45:36;11.30;99.90
33803;DHT22;20110;53.120;5.786;2022-09-12T03:48:03;11.30;99.90
33803;DHT22;20110;53.120;5.786;2022-09-12T03:50:30;11.40;99.90
33803;DHT22;20110;53.120;5.786;2022-09-12T03:52:58;11.40;99.90
33803;DHT22;20110;53.120;5.786;2022-09-12T03:55:24;11.40;99.90
33803;DHT22;20110;53.120;5.786;2022-09-12T03:57:52;11.50;99.90
33803;DHT22;20110;53.120;5.786;2022-09-12T04:00:18;11.50;99.90
33803;DHT22;20110;53.120;5.786;2022-09-12T04:02:44;11.60;99.90
33803;DHT22;20110;53.120;5.786;2022-09-12T04:05:10;11.50;99.90
33803;DHT22;20110;53.120;5.786;2022-09-12T04:07:36;11.60;99.90
33803;DHT22;20110;53.120;5.786;2022-09-12T04:10:02;11.60;99.90
33803;DHT22;20110;53.120;5.786;2022-09-12T04:12:28;11.70;99.90
33803;DHT22;20110;53.120;5.786;2022-09-12T04:14:54;11.80;99.90
33803;DHT22;20110;53.120;5.786;2022-09-12T04:17:20;11.80;99.90
33803;DHT22;20110;53.120;5.786;2022-09-12T04:19:46;11.80;99.90
33803;DHT22;20110;53.120;5.786;2022-09-12T04:22:11;11.90;99.90
33803;DHT22;20110;53.120;5.786;2022-09-12T04:24:37;12.00;99.90
33803;DHT22;20110;53.120;5.786;2022-09-12T04:27:03;12.00;99.90
33803;DHT22;20110;53.120;5.786;2022-09-12T04:29:29;12.00;99.90
33803;DHT22;20110;53.120;5.786;2022-09-12T04:31:55;12.00;99.90
33803;DHT22;20110;53.120;5.786;2022-09-12T04:34:21;12.10;99.90
33803;DHT22;20110;53.120;5.786;2022-09-12T04:36:48;12.10;99.90
33803;DHT22;20110;53.120;5.786;2022-09-12T04:39:13;12.10;99.90
33803;DHT22;20110;53.120;5.786;2022-09-12T04:41:39;12.10;99.90
33803;DHT22;20110;53.120;5.786;2022-09-12T04:44:09;12.20;99.90
33803;DHT22;20110;53.120;5.786;2022-09-12T04:46:40;12.20;99.90
33803;DHT22;20110;53.120;5.786;2022-09-12T04:49:10;12.20;99.90
33803;DHT22;20110;53.120;5.786;2022-09-12T04:51:37;12.20;99.90
33803;DHT22;20110;53.120;5.786;2022-09-12T04:54:08;12.20;99.90
33803;DHT22;20110;53.120;5.786;2022-09-12T04:56:38;12.10;99.90
33803;DHT22;20110;53.120;5.786;2022-09-12T04:59:05;12.20;99.90
33803;DHT22;20110;53.120;5.786;2022-09-12T05:01:33;12.20;99.90
33803;DHT22;20110;53.120;5.786;2022-09-12T05:04:00;12.30;99.90
33803;DHT22;20110;53.120;5.786;2022-09-12T05:06:31;12.30;99.90
33803;DHT22;20110;53.120;5.786;2022-09-12T05:08:59;12.30;99.90
33803;DHT22;20110;53.120;5.786;2022-09-12T05:11:29;12.40;99.90
33803;DHT22;20110;53.120;5.786;2022-09-12T05:13:57;12.30;99.90
33803;DHT22;20110;53.120;5.786;2022-09-12T05:16:25;12.40;99.90
33803;DHT22;20110;53.120;5.786;2022-09-12T05:18:53;12.50;99.90
33803;DHT22;20110;53.120;5.786;2022-09-12T05:21:21;12.40;99.90
33803;DHT22;20110;53.120;5.786;2022-09-12T05:23:50;12.60;99.90
33803;DHT22;20110;53.120;5.786;2022-09-12T05:26:18;12.50;99.90
33803;DHT22;20110;53.120;5.786;2022-09-12T05:28:45;12.50;99.90
33803;DHT22;20110;53.120;5.786;2022-09-12T05:31:15;12.50;99.90
33803;DHT22;20110;53.120;5.786;2022-09-12T05:33:44;12.50;99.90
33803;DHT22;20110;53.120;5.786;2022-09-12T05:36:26;12.50;99.90
33803;DHT22;20110;53.120;5.786;2022-09-12T05:38:54;12.50;99.90
33803;DHT22;20110;53.120;5.786;2022-09-12T05:41:25;12.50;99.90
33803;DHT22;20110;53.120;5.786;2022-09-12T05:43:59;12.60;99.90
33803;DHT22;20110;53.120;5.786;2022-09-12T05:46:35;12.60;99.90
33803;DHT22;20110;53.120;5.786;2022-09-12T05:49:06;12.60;99.90
33803;DHT22;20110;53.120;5.786;2022-09-12T05:51:36;12.60;99.90
33803;DHT22;20110;53.120;5.786;2022-09-12T05:54:05;12.60;99.90
33803;DHT22;20110;53.120;5.786;2022-09-12T05:56:37;12.60;99.90
33803;DHT22;20110;53.120;5.786;2022-09-12T05:59:08;12.60;99.90
33803;DHT22;20110;53.120;5.786;2022-09-12T06:01:43;12.60;99.90
33803;DHT22;20110;53.120;5.786;2022-09-12T06:04:09;12.60;99.90
33803;DHT22;20110;53.120;5.786;2022-09-12T06:06:41;12.70;99.90
33803;DHT22;20110;53.120;5.786;2022-09-12T06:09:14;12.70;99.90
33803;DHT22;20110;53.120;5.786;2022-09-12T06:11:41;12.70;99.90
33803;DHT22;20110;53.120;5.786;2022-09-12T06:14:10;12.70;99.90
33803;DHT22;20110;53.120;5.786;2022-09-12T06:16:37;12.70;99.90
33803;DHT22;20110;53.120;5.786;2022-09-12T06:19:12;12.80;99.90
33803;DHT22;20110;53.120;5.786;2022-09-12T06:21:43;12.80;99.90
33803;DHT22;20110;53.120;5.786;2022-09-12T06:24:10;12.80;99.90
33803;DHT22;20110;53.120;5.786;2022-09-12T06:26:36;12.90;99.90
33803;DHT22;20110;53.120;5.786;2022-09-12T06:29:02;13.00;99.90
33803;DHT22;20110;53.120;5.786;2022-09-12T06:31:31;13.00;99.90
33803;DHT22;20110;53.120;5.786;2022-09-12T06:34:01;13.10;99.90
33803;DHT22;20110;53.120;5.786;2022-09-12T06:36:30;13.10;99.90
33803;DHT22;20110;53.120;5.786;2022-09-12T06:39:13;13.20;99.90
33803;DHT22;20110;53.120;5.786;2022-09-12T06:41:47;13.30;99.90
33803;DHT22;20110;53.120;5.786;2022-09-12T06:44:20;13.30;99.90
33803;DHT22;20110;53.120;5.786;2022-09-12T06:46:47;13.20;99.90
33803;DHT22;20110;53.120;5.786;2022-09-12T06:49:13;13.30;99.90
33803;DHT22;20110;53.120;5.786;2022-09-12T06:51:39;13.30;99.90
33803;DHT22;20110;53.120;5.786;2022-09-12T06:54:11;13.40;99.90
33803;DHT22;20110;53.120;5.786;2022-09-12T06:56:38;13.40;99.90
33803;DHT22;20110;53.120;5.786;2022-09-12T06:59:04;13.50;99.90
33803;DHT22;20110;53.120;5.786;2022-09-12T07:01:31;13.50;99.90
33803;DHT22;20110;53.120;5.786;2022-09-12T07:03:59;13.60;99.90
33803;DHT22;20110;53.120;5.786;2022-09-12T07:06:28;13.50;99.90
33803;DHT22;20110;53.120;5.786;2022-09-12T07:09:01;13.60;99.90
33803;DHT22;20110;53.120;5.786;2022-09-12T07:11:34;13.60;99.90
33803;DHT22;20110;53.120;5.786;2022-09-12T07:14:03;13.60;99.90
33803;DHT22;20110;53.120;5.786;2022-09-12T07:16:31;13.70;99.90
33803;DHT22;20110;53.120;5.786;2022-09-12T07:19:01;13.70;99.90
33803;DHT22;20110;53.120;5.786;2022-09-12T07:21:29;13.80;99.90
33803;DHT22;20110;53.120;5.786;2022-09-12T07:23:56;13.90;99.90
33803;DHT22;20110;53.120;5.786;2022-09-12T07:26:23;13.90;99.90
33803;DHT22;20110;53.120;5.786;2022-09-12T07:28:52;14.00;99.90
33803;DHT22;20110;53.120;5.786;2022-09-12T07:31:20;14.10;99.90
33803;DHT22;20110;53.120;5.786;2022-09-12T07:33:48;14.20;99.90
33803;DHT22;20110;53.120;5.786;2022-09-12T07:36:19;14.30;99.90
33803;DHT22;20110;53.120;5.786;2022-09-12T07:38:46;14.30;99.90
33803;DHT22;20110;53.120;5.786;2022-09-12T07:41:15;14.30;99.90
33803;DHT22;20110;53.120;5.786;2022-09-12T07:43:43;14.30;99.90
33803;DHT22;20110;53.120;5.786;2022-09-12T07:46:09;14.50;99.90
33803;DHT22;20110;53.120;5.786;2022-09-12T07:48:35;14.60;99.90
33803;DHT22;20110;53.120;5.786;2022-09-12T07:51:04;14.70;99.90
33803;DHT22;20110;53.120;5.786;2022-09-12T07:53:37;14.70;99.90
33803;DHT22;20110;53.120;5.786;2022-09-12T07:56:06;14.90;99.90
33803;DHT22;20110;53.120;5.786;2022-09-12T07:58:34;14.90;99.90
33803;DHT22;20110;53.120;5.786;2022-09-12T08:01:08;15.00;99.90
33803;DHT22;20110;53.120;5.786;2022-09-12T08:03:40;15.30;99.90
33803;DHT22;20110;53.120;5.786;2022-09-12T08:06:12;15.50;99.90
33803;DHT22;20110;53.120;5.786;2022-09-12T08:08:40;15.50;99.90
33803;DHT22;20110;53.120;5.786;2022-09-12T08:11:10;15.50;99.90
33803;DHT22;20110;53.120;5.786;2022-09-12T08:13:38;15.80;99.90
33803;DHT22;20110;53.120;5.786;2022-09-12T08:16:15;15.70;99.90
33803;DHT22;20110;53.120;5.786;2022-09-12T08:18:43;16.00;99.90
33803;DHT22;20110;53.120;5.786;2022-09-12T08:21:15;16.00;99.90
33803;DHT22;20110;53.120;5.786;2022-09-12T08:23:43;16.20;99.90
33803;DHT22;20110;53.120;5.786;2022-09-12T08:26:10;16.50;99.90
33803;DHT22;20110;53.120;5.786;2022-09-12T08:28:37;16.20;99.90
33803;DHT22;20110;53.120;5.786;2022-09-12T08:31:11;16.30;99.90
33803;DHT22;20110;53.120;5.786;2022-09-12T08:33:38;16.40;99.90
33803;DHT22;20110;53.120;5.786;2022-09-12T08:36:10;16.40;99.90
33803;DHT22;20110;53.120;5.786;2022-09-12T08:38:39;16.80;99.90
33803;DHT22;20110;53.120;5.786;2022-09-12T08:49:41;16.90;99.90
33803;DHT22;20110;53.120;5.786;2022-09-12T08:52:31;17.20;99.90
33803;DHT22;20110;53.120;5.786;2022-09-12T08:55:04;17.10;99.90
33803;DHT22;20110;53.120;5.786;2022-09-12T08:57:37;17.30;99.90
33803;DHT22;20110;53.120;5.786;2022-09-12T09:00:10;17.10;99.90
33803;DHT22;20110;53.120;5.786;2022-09-12T09:02:51;17.20;99.90
33803;DHT22;20110;53.120;5.786;2022-09-12T09:17:17;17.40;99.90
33803;DHT22;20110;53.120;5.786;2022-09-12T09:19:58;17.60;99.90
33803;DHT22;20110;53.120;5.786;2022-09-12T09:22:37;17.60;99.90
33803;DHT22;20110;53.120;5.786;2022-09-12T09:25:20;18.10;99.90
33803;DHT22;20110;53.120;5.786;2022-09-12T09:27:56;18.30;99.90
33803;DHT22;20110;53.120;5.786;2022-09-12T09:30:26;18.10;99.90
33803;DHT22;20110;53.120;5.786;2022-09-12T09:33:00;18.20;99.90
33803;DHT22;20110;53.120;5.786;2022-09-12T09:35:44;18.00;99.90
33803;DHT22;20110;53.120;5.786;2022-09-12T09:44:27;18.50;99.90
33803;DHT22;20110;53.120;5.786;2022-09-12T09:46:55;18.40;99.90
33803;DHT22;20110;53.120;5.786;2022-09-12T09:49:25;19.20;99.90
33803;DHT22;20110;53.120;5.786;2022-09-12T09:51:52;19.50;99.90
33803;DHT22;20110;53.120;5.786;2022-09-12T09:54:35;19.80;99.90
33803;DHT22;20110;53.120;5.786;2022-09-12T10:05:53;18.90;99.90
33803;DHT22;20110;53.120;5.786;2022-09-12T10:08:24;19.30;99.90
33803;DHT22;20110;53.120;5.786;2022-09-12T10:11:21;19.50;99.90
33803;DHT22;20110;53.120;5.786;2022-09-12T10:13:54;19.80;99.90
33803;DHT22;20110;53.120;5.786;2022-09-12T10:16:23;20.30;99.90
33803;DHT22;20110;53.120;5.786;2022-09-12T10:18:56;20.30;99.90
33803;DHT22;20110;53.120;5.786;2022-09-12T10:21:53;20.20;99.90
33803;DHT22;20110;53.120;5.786;2022-09-12T10:24:26;20.30;99.90
33803;DHT22;20110;53.120;5.786;2022-09-12T10:30:05;20.50;99.90
33803;DHT22;20110;53.120;5.786;2022-09-12T10:32:36;20.50;99.90
33803;DHT22;20110;53.120;5.786;2022-09-12T10:35:27;20.80;99.90
33803;DHT22;20110;53.120;5.786;2022-09-12T10:37:57;20.90;99.90
33803;DHT22;20110;53.120;5.786;2022-09-12T10:40:39;20.80;99.90
33803;DHT22;20110;53.120;5.786;2022-09-12T10:43:46;21.00;99.90
33803;DHT22;20110;53.120;5.786;2022-09-12T10:52:13;21.00;99.90
33803;DHT22;20110;53.120;5.786;2022-09-12T10:54:47;20.60;99.90
33803;DHT22;20110;53.120;5.786;2022-09-12T10:57:33;20.40;99.90
33803;DHT22;20110;53.120;5.786;2022-09-12T11:00:10;20.60;99.90
33803;DHT22;20110;53.120;5.786;2022-09-12T11:06:43;20.60;99.90
33803;DHT22;20110;53.120;5.786;2022-09-12T11:24:12;20.80;99.90
33803;DHT22;20110;53.120;5.786;2022-09-12T11:35:46;20.60;99.90
33803;DHT22;20110;53.120;5.786;2022-09-12T11:41:28;21.10;99.90
33803;DHT22;20110;53.120;5.786;2022-09-12T11:44:02;21.30;99.90
33803;DHT22;20110;53.120;5.786;2022-09-12T11:46:37;21.50;99.90
33803;DHT22;20110;53.120;5.786;2022-09-12T11:54:47;21.10;99.90
33803;DHT22;20110;53.120;5.786;2022-09-12T11:57:38;20.80;99.90
33803;DHT22;20110;53.120;5.786;2022-09-12T12:00:15;21.10;99.90
33803;DHT22;20110;53.120;5.786;2022-09-12T12:03:14;21.40;99.90
33803;DHT22;20110;53.120;5.786;2022-09-12T12:06:03;21.50;99.90
33803;DHT22;20110;53.120;5.786;2022-09-12T12:08:41;21.20;99.90
33803;DHT22;20110;53.120;5.786;2022-09-12T12:11:23;21.20;99.90
33803;DHT22;20110;53.120;5.786;2022-09-12T12:13:56;21.30;99.90
33803;DHT22;20110;53.120;5.786;2022-09-12T12:16:27;21.10;99.90
33803;DHT22;20110;53.120;5.786;2022-09-12T12:18:58;21.50;99.90
33803;DHT22;20110;53.120;5.786;2022-09-12T12:29:42;21.10;99.90
33803;DHT22;20110;53.120;5.786;2022-09-12T12:34:42;21.00;99.90
33803;DHT22;20110;53.120;5.786;2022-09-12T12:44:58;21.40;99.90
33803;DHT22;20110;53.120;5.786;2022-09-12T12:47:47;21.80;99.90
33803;DHT22;20110;53.120;5.786;2022-09-12T12:50:21;21.30;99.90
33803;DHT22;20110;53.120;5.786;2022-09-12T12:53:03;21.90;99.90
33803;DHT22;20110;53.120;5.786;2022-09-12T12:58:21;21.80;99.90
33803;DHT22;20110;53.120;5.786;2022-09-12T13:01:12;21.60;99.90
33803;DHT22;20110;53.120;5.786;2022-09-12T13:03:51;21.30;99.90
33803;DHT22;20110;53.120;5.786;2022-09-12T13:06:37;21.70;99.90
33803;DHT22;20110;53.120;5.786;2022-09-12T13:09:08;21.70;99.90
33803;DHT22;20110;53.120;5.786;2022-09-12T13:12:02;21.80;99.90
33803;DHT22;20110;53.120;5.786;2022-09-12T13:17:14;21.80;99.90
33803;DHT22;20110;53.120;5.786;2022-09-12T13:19:45;21.50;99.90
33803;DHT22;20110;53.120;5.786;2022-09-12T13:22:12;21.50;99.90
33803;DHT22;20110;53.120;5.786;2022-09-12T13:24:46;21.50;99.90
33803;DHT22;20110;53.120;5.786;2022-09-12T13:27:24;21.30;99.90
33803;DHT22;20110;53.120;5.786;2022-09-12T13:30:13;21.20;99.90
33803;DHT22;20110;53.120;5.786;2022-09-12T13:32:41;21.20;99.90
33803;DHT22;20110;53.120;5.786;2022-09-12T13:35:20;21.30;99.90
33803;DHT22;20110;53.120;5.786;2022-09-12T13:44:02;21.30;99.90
33803;DHT22;20110;53.120;5.786;2022-09-12T13:46:32;21.80;99.90
33803;DHT22;20110;53.120;5.786;2022-09-12T13:49:01;21.60;99.90
33803;DHT22;20110;53.120;5.786;2022-09-12T13:51:35;21.30;99.90
33803;DHT22;20110;53.120;5.786;2022-09-12T13:54:03;21.50;99.90
33803;DHT22;20110;53.120;5.786;2022-09-12T13:56:30;21.40;99.90
33803;DHT22;20110;53.120;5.786;2022-09-12T13:59:01;21.10;99.90
33803;DHT22;20110;53.120;5.786;2022-09-12T14:01:39;21.30;99.90
33803;DHT22;20110;53.120;5.786;2022-09-12T14:04:21;21.30;99.90
33803;DHT22;20110;53.120;5.786;2022-09-12T14:07:20;21.10;99.90
33803;DHT22;20110;53.120;5.786;2022-09-12T14:09:55;21.00;99.90
33803;DHT22;20110;53.120;5.786;2022-09-12T14:12:39;21.10;99.90
33803;DHT22;20110;53.120;5.786;2022-09-12T14:15:29;21.30;99.90
33803;DHT22;20110;53.120;5.786;2022-09-12T14:18:00;21.30;99.90
33803;DHT22;20110;53.120;5.786;2022-09-12T14:20:34;21.30;99.90
33803;DHT22;20110;53.120;5.786;2022-09-12T14:23:27;21.40;99.90
33803;DHT22;20110;53.120;5.786;2022-09-12T14:25:56;21.40;99.90
33803;DHT22;20110;53.120;5.786;2022-09-12T14:28:25;21.30;99.90
33803;DHT22;20110;53.120;5.786;2022-09-12T14:31:51;21.40;99.90
33803;DHT22;20110;53.120;5.786;2022-09-12T14:34:17;21.30;99.90
33803;DHT22;20110;53.120;5.786;2022-09-12T14:36:49;21.30;99.90
33803;DHT22;20110;53.120;5.786;2022-09-12T14:44:29;21.40;99.90
33803;DHT22;20110;53.120;5.786;2022-09-12T14:47:12;21.50;99.90
33803;DHT22;20110;53.120;5.786;2022-09-12T14:49:45;21.50;99.90
33803;DHT22;20110;53.120;5.786;2022-09-12T14:52:26;21.60;99.90
33803;DHT22;20110;53.120;5.786;2022-09-12T14:55:22;21.60;99.90
33803;DHT22;20110;53.120;5.786;2022-09-12T14:58:24;21.80;99.90
33803;DHT22;20110;53.120;5.786;2022-09-12T15:03:34;21.20;99.90
33803;DHT22;20110;53.120;5.786;2022-09-12T15:06:32;21.30;99.90
33803;DHT22;20110;53.120;5.786;2022-09-12T15:09:06;21.20;99.90
33803;DHT22;20110;53.120;5.786;2022-09-12T15:11:36;21.30;99.90
33803;DHT22;20110;53.120;5.786;2022-09-12T15:14:11;21.20;99.90
33803;DHT22;20110;53.120;5.786;2022-09-12T15:16:37;21.10;99.90
33803;DHT22;20110;53.120;5.786;2022-09-12T15:19:03;21.00;99.90
33803;DHT22;20110;53.120;5.786;2022-09-12T15:21:29;20.80;99.90
33803;DHT22;20110;53.120;5.786;2022-09-12T15:23:55;20.80;99.90
33803;DHT22;20110;53.120;5.786;2022-09-12T15:26:22;20.80;99.90
33803;DHT22;20110;53.120;5.786;2022-09-12T15:28:52;20.70;99.90
33803;DHT22;20110;53.120;5.786;2022-09-12T15:31:38;20.70;99.90
33803;DHT22;20110;53.120;5.786;2022-09-12T15:34:04;20.80;99.90
33803;DHT22;20110;53.120;5.786;2022-09-12T15:36:30;20.70;99.90
33803;DHT22;20110;53.120;5.786;2022-09-12T15:38:56;20.80;99.90
33803;DHT22;20110;53.120;5.786;2022-09-12T15:41:25;21.00;99.90
33803;DHT22;20110;53.120;5.786;2022-09-12T15:43:57;21.00;99.90
33803;DHT22;20110;53.120;5.786;2022-09-12T15:46:23;20.80;99.90
33803;DHT22;20110;53.120;5.786;2022-09-12T15:48:49;20.80;99.90
33803;DHT22;20110;53.120;5.786;2022-09-12T15:51:17;20.70;99.90
33803;DHT22;20110;53.120;5.786;2022-09-12T15:53:45;20.60;99.90
33803;DHT22;20110;53.120;5.786;2022-09-12T15:56:14;20.60;99.90
33803;DHT22;20110;53.120;5.786;2022-09-12T15:58:41;20.60;99.90
33803;DHT22;20110;53.120;5.786;2022-09-12T16:01:10;20.40;99.90
33803;DHT22;20110;53.120;5.786;2022-09-12T16:03:38;20.50;99.90
33803;DHT22;20110;53.120;5.786;2022-09-12T16:06:04;20.40;99.90
33803;DHT22;20110;53.120;5.786;2022-09-12T16:08:31;20.40;99.90
33803;DHT22;20110;53.120;5.786;2022-09-12T16:11:02;20.50;99.90
33803;DHT22;20110;53.120;5.786;2022-09-12T16:13:30;20.50;99.90
33803;DHT22;20110;53.120;5.786;2022-09-12T16:15:56;20.40;99.90
33803;DHT22;20110;53.120;5.786;2022-09-12T16:18:23;20.40;99.90
33803;DHT22;20110;53.120;5.786;2022-09-12T16:20:54;20.30;99.90
33803;DHT22;20110;53.120;5.786;2022-09-12T16:23:20;20.20;99.90
33803;DHT22;20110;53.120;5.786;2022-09-12T16:26:03;20.30;99.90
33803;DHT22;20110;53.120;5.786;2022-09-12T16:28:31;20.20;99.90
33803;DHT22;20110;53.120;5.786;2022-09-12T16:31:00;20.20;99.90
33803;DHT22;20110;53.120;5.786;2022-09-12T16:33:28;20.10;99.90
33803;DHT22;20110;53.120;5.786;2022-09-12T16:36:06;20.20;99.90
33803;DHT22;20110;53.120;5.786;2022-09-12T16:38:44;20.20;99.90
33803;DHT22;20110;53.120;5.786;2022-09-12T16:41:12;20.20;99.90
33803;DHT22;20110;53.120;5.786;2022-09-12T16:43:39;20.20;99.90
33803;DHT22;20110;53.120;5.786;2022-09-12T16:46:14;20.20;99.90
33803;DHT22;20110;53.120;5.786;2022-09-12T16:48:47;20.30;99.90
33803;DHT22;20110;53.120;5.786;2022-09-12T16:51:16;20.30;99.90
33803;DHT22;20110;53.120;5.786;2022-09-12T16:53:46;20.30;99.90
33803;DHT22;20110;53.120;5.786;2022-09-12T16:56:13;20.20;99.90
33803;DHT22;20110;53.120;5.786;2022-09-12T16:58:39;20.10;99.90
33803;DHT22;20110;53.120;5.786;2022-09-12T17:01:17;20.00;99.90
33803;DHT22;20110;53.120;5.786;2022-09-12T17:03:45;20.00;99.90
33803;DHT22;20110;53.120;5.786;2022-09-12T17:06:13;19.80;99.90
33803;DHT22;20110;53.120;5.786;2022-09-12T17:08:42;19.70;99.90
33803;DHT22;20110;53.120;5.786;2022-09-12T17:11:34;19.60;99.90
33803;DHT22;20110;53.120;5.786;2022-09-12T17:14:03;19.50;99.90
33803;DHT22;20110;53.120;5.786;2022-09-12T17:16:31;19.50;99.90
33803;DHT22;20110;53.120;5.786;2022-09-12T17:18:58;19.50;99.90
33803;DHT22;20110;53.120;5.786;2022-09-12T17:21:24;19.50;99.90
33803;DHT22;20110;53.120;5.786;2022-09-12T17:23:50;19.50;99.90
33803;DHT22;20110;53.120;5.786;2022-09-12T17:26:16;19.60;99.90
33803;DHT22;20110;53.120;5.786;2022-09-12T17:28:42;19.50;99.90
33803;DHT22;20110;53.120;5.786;2022-09-12T17:31:10;19.50;99.90
33803;DHT22;20110;53.120;5.786;2022-09-12T17:33:37;19.40;99.90
33803;DHT22;20110;53.120;5.786;2022-09-12T17:36:11;19.30;99.90
33803;DHT22;20110;53.120;5.786;2022-09-12T17:38:40;19.40;99.90
33803;DHT22;20110;53.120;5.786;2022-09-12T17:41:12;19.30;99.90
33803;DHT22;20110;53.120;5.786;2022-09-12T17:43:47;19.20;99.90
33803;DHT22;20110;53.120;5.786;2022-09-12T17:46:21;19.10;99.90
33803;DHT22;20110;53.120;5.786;2022-09-12T17:48:55;19.10;99.90
33803;DHT22;20110;53.120;5.786;2022-09-12T17:51:23;19.10;99.90
33803;DHT22;20110;53.120;5.786;2022-09-12T17:54:08;19.10;99.90
33803;DHT22;20110;53.120;5.786;2022-09-12T17:56:36;19.10;99.90
33803;DHT22;20110;53.120;5.786;2022-09-12T17:59:05;19.00;99.90
33803;DHT22;20110;53.120;5.786;2022-09-12T18:01:32;19.00;99.90
33803;DHT22;20110;53.120;5.786;2022-09-12T18:04:24;18.90;99.90
33803;DHT22;20110;53.120;5.786;2022-09-12T18:06:49;18.90;99.90
33803;DHT22;20110;53.120;5.786;2022-09-12T18:09:21;18.80;99.90
33803;DHT22;20110;53.120;5.786;2022-09-12T18:11:49;18.90;99.90
33803;DHT22;20110;53.120;5.786;2022-09-12T18:14:17;19.00;99.90
33803;DHT22;20110;53.120;5.786;2022-09-12T18:16:44;18.80;99.90
33803;DHT22;20110;53.120;5.786;2022-09-12T18:19:10;18.50;99.90
33803;DHT22;20110;53.120;5.786;2022-09-12T18:21:36;18.50;99.90
33803;DHT22;20110;53.120;5.786;2022-09-12T18:24:02;18.60;99.90
33803;DHT22;20110;53.120;5.786;2022-09-12T18:26:29;18.60;99.90
33803;DHT22;20110;53.120;5.786;2022-09-12T18:28:56;18.70;99.90
33803;DHT22;20110;53.120;5.786;2022-09-12T18:31:25;18.60;99.90
33803;DHT22;20110;53.120;5.786;2022-09-12T18:33:53;18.50;99.90
33803;DHT22;20110;53.120;5.786;2022-09-12T18:36:19;18.50;99.90
33803;DHT22;20110;53.120;5.786;2022-09-12T18:38:46;18.50;99.90
33803;DHT22;20110;53.120;5.786;2022-09-12T18:41:14;18.50;99.90
33803;DHT22;20110;53.120;5.786;2022-09-12T18:43:45;18.60;99.90
33803;DHT22;20110;53.120;5.786;2022-09-12T18:46:17;18.50;99.90
33803;DHT22;20110;53.120;5.786;2022-09-12T18:48:44;18.50;99.90
33803;DHT22;20110;53.120;5.786;2022-09-12T18:51:19;18.50;99.90
33803;DHT22;20110;53.120;5.786;2022-09-12T18:53:52;18.30;99.90
33803;DHT22;20110;53.120;5.786;2022-09-12T18:56:22;18.20;99.90
33803;DHT22;20110;53.120;5.786;2022-09-12T18:58:51;18.10;99.90
33803;DHT22;20110;53.120;5.786;2022-09-12T19:01:27;17.90;99.90
33803;DHT22;20110;53.120;5.786;2022-09-12T19:03:55;17.70;99.90